Time;durP1;ratioP1;P1;durP2;ratioP2;P2;SDS_P1;SDS_P2;PMS_P1;PMS_P2;Temp;Humidity;BMP_temperature;BMP_pressure;BME280_temperature;BME280_humidity;BME280_pressure;Samples;Min_cycle;Max_cycle;Signal;HPM_P1;HPM_P2
2021/09/26 00:01:39;;;;;;;13.95;8.10;;;12.20;99.90;;;;;;5071092;28;20195;-73
2021/09/26 00:04:05;;;;;;;11.15;6.72;;;12.30;99.90;;;;;;5071077;28;20172;-72
2021/09/26 00:06:31;;;;;;;10.30;7.47;;;12.20;99.90;;;;;;5071008;28;20190;-72
2021/09/26 00:08:57;;;;;;;10.25;7.35;;;12.00;99.90;;;;;;5071023;28;20179;-72
2021/09/26 00:11:23;;;;;;;13.60;8.40;;;12.10;99.90;;;;;;5053017;28;20241;-72
2021/09/26 00:13:50;;;;;;;13.35;8.50;;;12.30;99.90;;;;;;5071027;28;20693;-73
2021/09/26 00:16:17;;;;;;;13.30;9.10;;;12.40;99.90;;;;;;5070977;28;20318;-73
2021/09/26 00:18:43;;;;;;;12.77;9.25;;;12.30;99.90;;;;;;5070720;28;20183;-72
2021/09/26 00:21:09;;;;;;;12.27;8.40;;;12.30;99.90;;;;;;5070657;28;20223;-72
2021/09/26 00:23:35;;;;;;;14.05;7.53;;;12.40;99.90;;;;;;5071017;28;20157;-73
2021/09/26 00:26:03;;;;;;;13.05;7.80;;;12.40;99.90;;;;;;5055639;28;20270;-72
2021/09/26 00:28:29;;;;;;;13.13;7.93;;;12.30;99.90;;;;;;5070581;28;20196;-72
2021/09/26 00:30:55;;;;;;;12.70;8.48;;;12.10;99.90;;;;;;5070427;28;20235;-73
2021/09/26 00:33:22;;;;;;;10.25;8.02;;;12.10;99.90;;;;;;5070524;28;20168;-73
2021/09/26 00:35:48;;;;;;;14.40;9.43;;;12.10;99.90;;;;;;5070487;28;20200;-73
2021/09/26 00:38:14;;;;;;;15.55;10.02;;;11.90;99.90;;;;;;5070297;28;20202;-72
2021/09/26 00:40:40;;;;;;;15.02;9.35;;;11.90;99.90;;;;;;5070207;28;20227;-73
2021/09/26 00:43:06;;;;;;;14.57;8.75;;;12.00;99.90;;;;;;5070177;28;20149;-73
2021/09/26 00:45:32;;;;;;;18.58;8.90;;;12.00;99.90;;;;;;5068058;28;20215;-73
2021/09/26 00:47:58;;;;;;;10.60;7.32;;;11.90;99.90;;;;;;5070114;28;20283;-73
2021/09/26 00:50:24;;;;;;;14.00;8.60;;;11.90;99.90;;;;;;5070079;28;20177;-74
2021/09/26 00:52:51;;;;;;;16.73;9.65;;;12.00;99.90;;;;;;5069773;28;20725;-73
2021/09/26 00:55:17;;;;;;;13.52;9.18;;;12.00;99.90;;;;;;5069927;28;20268;-73
2021/09/26 00:57:44;;;;;;;11.65;8.45;;;12.00;99.90;;;;;;5070189;28;20157;-72
2021/09/26 01:00:14;;;;;;;12.18;9.02;;;12.00;99.90;;;;;;5069351;28;20167;-73
2021/09/26 01:02:40;;;;;;;16.17;9.40;;;11.80;99.90;;;;;;5069814;28;20195;-73
2021/09/26 01:05:08;;;;;;;12.82;8.85;;;11.90;99.90;;;;;;5069835;28;20242;-72
2021/09/26 01:08:01;;;;;;;14.75;8.02;;;11.90;99.90;;;;;;5069868;28;20156;-73
2021/09/26 01:10:49;;;;;;;12.00;8.60;;;12.00;99.90;;;;;;5069709;28;20164;-73
2021/09/26 01:13:45;;;;;;;13.63;8.75;;;11.70;99.90;;;;;;5069380;28;20201;-71
2021/09/26 01:16:30;;;;;;;13.25;9.55;;;11.80;99.90;;;;;;5069547;28;20189;-71
2021/09/26 01:19:22;;;;;;;12.88;9.38;;;11.80;99.90;;;;;;5069496;28;20157;-71
2021/09/26 01:21:57;;;;;;;11.93;8.77;;;11.90;99.90;;;;;;5069403;28;20188;-72
2021/09/26 01:24:41;;;;;;;12.77;8.25;;;11.90;99.90;;;;;;5069217;28;20521;-71
2021/09/26 01:27:25;;;;;;;12.50;8.45;;;11.80;99.90;;;;;;5069239;28;20195;-72
2021/09/26 01:30:28;;;;;;;14.63;9.73;;;11.60;99.90;;;;;;5069200;28;20240;-71
2021/09/26 01:33:04;;;;;;;18.25;8.93;;;11.60;99.90;;;;;;5069301;28;20182;-72
2021/09/26 01:35:34;;;;;;;15.02;9.32;;;11.70;99.90;;;;;;5069367;28;20188;-71
2021/09/26 01:38:10;;;;;;;15.63;9.93;;;11.70;99.90;;;;;;5069122;28;20161;-72
2021/09/26 01:40:57;;;;;;;11.43;8.13;;;11.80;99.90;;;;;;5069061;28;20175;-72
2021/09/26 01:43:34;;;;;;;12.93;9.02;;;11.70;99.90;;;;;;5069085;28;20156;-72
2021/09/26 01:46:05;;;;;;;13.07;7.53;;;11.80;99.90;;;;;;5034386;28;20196;-71
2021/09/26 01:49:00;;;;;;;15.73;9.27;;;11.80;99.90;;;;;;5068902;28;20158;-71
2021/09/26 01:51:28;;;;;;;13.25;8.35;;;11.70;99.90;;;;;;5068728;28;20220;-71
2021/09/26 01:53:56;;;;;;;11.13;7.47;;;11.70;99.90;;;;;;5069015;28;20310;-71
2021/09/26 01:56:24;;;;;;;13.68;8.35;;;11.70;99.90;;;;;;5068910;28;20153;-71
2021/09/26 01:58:51;;;;;;;14.85;8.75;;;11.60;99.90;;;;;;5068882;28;20188;-71
2021/09/26 02:01:18;;;;;;;11.27;7.75;;;11.50;99.90;;;;;;5068807;28;20210;-71
2021/09/26 02:03:45;;;;;;;14.23;8.82;;;11.50;99.90;;;;;;5068811;28;20172;-72
2021/09/26 02:06:12;;;;;;;10.32;8.38;;;11.30;99.90;;;;;;5068656;28;20215;-71
2021/09/26 02:08:44;;;;;;;11.85;8.82;;;11.20;99.90;;;;;;5068577;28;20171;-73
2021/09/26 02:11:13;;;;;;;12.10;8.15;;;11.30;99.90;;;;;;5067840;28;20152;-73
2021/09/26 02:13:41;;;;;;;13.85;8.07;;;11.30;99.90;;;;;;5068631;28;20177;-72
2021/09/26 02:16:09;;;;;;;13.27;7.97;;;11.20;99.90;;;;;;5068651;28;20242;-71
2021/09/26 02:18:37;;;;;;;13.13;9.13;;;11.10;99.90;;;;;;5068719;28;20298;-71
2021/09/26 02:21:05;;;;;;;14.13;9.02;;;11.30;99.90;;;;;;5068540;28;20192;-71
2021/09/26 02:23:32;;;;;;;12.40;9.50;;;11.30;99.90;;;;;;5068654;28;20168;-71
2021/09/26 02:25:59;;;;;;;15.73;8.20;;;11.30;99.90;;;;;;5048819;28;20200;-71
2021/09/26 02:28:25;;;;;;;14.68;9.20;;;11.30;99.90;;;;;;5049676;28;20157;-71
2021/09/26 02:30:52;;;;;;;13.30;9.13;;;11.30;99.90;;;;;;5049582;28;20188;-72
2021/09/26 02:33:18;;;;;;;15.20;8.75;;;11.30;99.90;;;;;;5048945;28;20183;-71
2021/09/26 02:35:44;;;;;;;12.15;8.40;;;11.10;99.90;;;;;;5048410;28;20276;-71
2021/09/26 02:38:11;;;;;;;11.38;8.70;;;11.20;99.90;;;;;;5048437;28;20168;-71
2021/09/26 02:40:37;;;;;;;11.70;8.80;;;11.20;99.90;;;;;;5048505;28;20164;-71
2021/09/26 02:43:15;;;;;;;15.30;9.82;;;11.20;99.90;;;;;;5048387;28;20162;-71
2021/09/26 02:46:05;;;;;;;14.80;10.05;;;11.00;99.90;;;;;;5048209;28;20649;-72
2021/09/26 02:48:32;;;;;;;11.35;8.23;;;11.00;99.90;;;;;;5048355;28;20177;-72
2021/09/26 02:51:00;;;;;;;12.73;8.32;;;11.00;99.90;;;;;;5048153;28;20275;-73
2021/09/26 02:53:27;;;;;;;12.63;8.82;;;11.10;99.90;;;;;;5048387;28;20169;-73
2021/09/26 02:55:56;;;;;;;11.82;8.55;;;11.30;99.90;;;;;;5047993;28;20193;-72
2021/09/26 02:58:22;;;;;;;13.07;8.75;;;11.30;99.90;;;;;;5048150;28;20161;-72
2021/09/26 03:00:49;;;;;;;14.27;8.65;;;11.20;99.90;;;;;;5048181;28;20165;-72
2021/09/26 03:03:19;;;;;;;12.95;8.35;;;11.10;99.90;;;;;;5047949;28;20170;-72
2021/09/26 03:05:46;;;;;;;15.32;9.90;;;10.90;99.90;;;;;;5030202;28;20200;-71
2021/09/26 03:08:13;;;;;;;16.63;10.13;;;11.00;99.90;;;;;;5047930;28;20180;-72
2021/09/26 03:10:41;;;;;;;13.88;9.52;;;11.00;99.90;;;;;;5047971;28;20195;-71
2021/09/26 03:13:07;;;;;;;14.05;9.40;;;11.00;99.90;;;;;;5043741;28;20260;-72
2021/09/26 03:15:33;;;;;;;13.98;9.02;;;10.80;99.90;;;;;;5067835;28;20230;-72
2021/09/26 03:17:59;;;;;;;15.13;9.50;;;10.80;99.90;;;;;;5067617;28;20153;-72
2021/09/26 03:20:25;;;;;;;13.65;10.18;;;10.80;99.90;;;;;;5067787;28;20180;-73
2021/09/26 03:22:54;;;;;;;18.08;11.07;;;10.90;99.90;;;;;;5067624;28;20192;-73
2021/09/26 03:25:20;;;;;;;16.48;10.48;;;11.00;99.90;;;;;;5067475;28;20193;-72
2021/09/26 03:27:47;;;;;;;17.17;10.20;;;11.00;99.90;;;;;;5067779;28;20218;-72
2021/09/26 03:30:14;;;;;;;19.08;10.13;;;10.90;99.90;;;;;;5067703;28;20161;-73
2021/09/26 03:32:41;;;;;;;19.52;10.50;;;10.80;99.90;;;;;;5067533;28;20164;-72
2021/09/26 03:35:09;;;;;;;19.63;11.25;;;10.90;99.90;;;;;;5067628;28;20193;-73
2021/09/26 03:37:35;;;;;;;15.43;11.15;;;10.90;99.90;;;;;;5067585;28;20168;-73
2021/09/26 03:40:01;;;;;;;15.85;9.63;;;10.90;99.90;;;;;;5067572;28;20165;-73
2021/09/26 03:42:27;;;;;;;19.80;11.45;;;10.80;99.90;;;;;;5067505;28;20193;-73
2021/09/26 03:44:53;;;;;;;19.70;11.32;;;10.90;99.90;;;;;;5067436;28;20271;-73
2021/09/26 03:47:19;;;;;;;13.68;9.80;;;10.90;99.90;;;;;;5067451;28;20165;-72
2021/09/26 03:49:45;;;;;;;17.92;10.93;;;10.90;99.90;;;;;;5067426;28;20172;-72
2021/09/26 03:52:11;;;;;;;16.15;11.70;;;10.90;99.90;;;;;;5067326;28;20220;-72
2021/09/26 03:54:37;;;;;;;24.83;13.27;;;11.00;99.90;;;;;;5067271;28;20196;-72
2021/09/26 03:57:02;;;;;;;17.98;11.80;;;11.00;99.90;;;;;;5067373;28;20164;-73
2021/09/26 03:59:28;;;;;;;20.42;12.82;;;11.00;99.90;;;;;;5067353;28;20176;-73
2021/09/26 04:01:54;;;;;;;17.85;12.00;;;11.10;99.90;;;;;;5067233;28;20246;-73
2021/09/26 04:04:20;;;;;;;17.77;11.85;;;11.00;99.90;;;;;;5067254;28;20180;-72
2021/09/26 04:06:46;;;;;;;19.52;12.45;;;11.00;99.90;;;;;;5067409;28;20309;-73
2021/09/26 04:09:12;;;;;;;15.55;11.95;;;10.90;99.90;;;;;;5067376;28;20165;-74
2021/09/26 04:11:39;;;;;;;18.17;12.38;;;10.90;99.90;;;;;;5067256;28;20168;-72
2021/09/26 04:14:05;;;;;;;19.27;12.73;;;10.90;99.90;;;;;;5067006;28;20199;-73
2021/09/26 04:16:32;;;;;;;19.17;11.27;;;10.90;99.90;;;;;;5067011;28;20223;-72
2021/09/26 04:18:59;;;;;;;15.38;10.05;;;10.90;99.90;;;;;;5067076;28;20188;-74
2021/09/26 04:21:25;;;;;;;21.45;11.80;;;10.90;99.90;;;;;;5067105;28;20199;-73
2021/09/26 04:23:51;;;;;;;22.48;12.93;;;11.00;99.90;;;;;;5067073;28;20161;-73
2021/09/26 04:26:18;;;;;;;18.63;11.57;;;11.10;99.90;;;;;;5067071;28;20285;-73
2021/09/26 04:28:44;;;;;;;20.60;11.70;;;11.10;99.90;;;;;;5066853;28;20242;-73
2021/09/26 04:31:10;;;;;;;16.05;11.05;;;11.00;99.90;;;;;;5067129;28;20180;-73
2021/09/26 04:33:36;;;;;;;17.23;11.60;;;11.00;99.90;;;;;;5067803;28;20519;-73
2021/09/26 04:36:03;;;;;;;22.88;12.27;;;10.70;99.90;;;;;;5070660;28;20197;-73
2021/09/26 04:38:29;;;;;;;18.35;11.48;;;10.70;99.90;;;;;;5070604;28;20167;-73
2021/09/26 04:40:56;;;;;;;13.98;10.02;;;10.70;99.90;;;;;;5070579;28;20180;-73
2021/09/26 04:43:22;;;;;;;18.15;11.52;;;10.80;99.90;;;;;;5070496;28;20164;-73
2021/09/26 04:45:47;;;;;;;18.38;11.38;;;10.80;99.90;;;;;;5070341;28;20768;-73
2021/09/26 04:48:13;;;;;;;21.90;12.60;;;10.90;99.90;;;;;;5070495;28;20203;-74
2021/09/26 04:50:39;;;;;;;20.73;12.40;;;10.80;99.90;;;;;;5070268;28;20157;-73
2021/09/26 04:53:05;;;;;;;17.70;12.23;;;10.70;99.90;;;;;;5070515;28;20319;-74
2021/09/26 04:55:31;;;;;;;16.88;11.75;;;10.70;99.90;;;;;;5070324;28;20193;-73
2021/09/26 04:57:57;;;;;;;15.63;11.18;;;10.80;99.90;;;;;;5070297;28;20167;-73
2021/09/26 05:00:24;;;;;;;20.77;12.73;;;10.80;99.90;;;;;;5070012;28;20243;-73
2021/09/26 05:02:50;;;;;;;15.73;11.00;;;10.80;99.90;;;;;;5070332;28;20256;-74
2021/09/26 05:05:17;;;;;;;20.73;12.38;;;10.90;99.90;;;;;;5070724;28;20222;-73
2021/09/26 05:07:42;;;;;;;20.50;11.52;;;10.90;99.90;;;;;;5052830;28;20173;-73
2021/09/26 05:10:09;;;;;;;16.38;10.70;;;11.00;99.90;;;;;;5070296;28;20163;-73
2021/09/26 05:12:36;;;;;;;18.67;11.82;;;11.00;99.90;;;;;;5070110;28;20218;-73
2021/09/26 05:15:04;;;;;;;17.73;11.52;;;11.00;99.90;;;;;;5070024;28;20196;-73
2021/09/26 05:17:32;;;;;;;18.88;11.07;;;11.00;99.90;;;;;;5070035;28;20172;-73
2021/09/26 05:19:59;;;;;;;19.05;11.18;;;11.10;99.90;;;;;;5070166;28;20261;-73
2021/09/26 05:22:26;;;;;;;19.75;12.50;;;11.10;99.90;;;;;;5069918;28;20192;-73
2021/09/26 05:24:52;;;;;;;15.65;11.02;;;11.20;99.90;;;;;;5069897;28;20188;-73
2021/09/26 05:27:18;;;;;;;20.60;11.55;;;11.10;99.90;;;;;;5069419;28;20210;-74
2021/09/26 05:29:44;;;;;;;21.63;14.02;;;11.10;99.90;;;;;;5069606;28;20203;-73
2021/09/26 05:32:10;;;;;;;22.90;13.05;;;11.00;99.90;;;;;;5051818;28;20208;-74
2021/09/26 05:34:36;;;;;;;20.63;13.45;;;11.10;99.90;;;;;;5069416;28;20211;-74
2021/09/26 05:37:03;;;;;;;21.42;13.20;;;11.10;99.90;;;;;;5069456;28;20195;-73
2021/09/26 05:39:31;;;;;;;20.55;13.10;;;11.30;99.90;;;;;;5069467;28;20315;-74
2021/09/26 05:41:58;;;;;;;19.83;13.45;;;11.40;99.90;;;;;;5069250;28;20200;-75
2021/09/26 05:44:25;;;;;;;24.73;14.88;;;11.40;99.90;;;;;;5069184;28;20246;-74
2021/09/26 05:46:51;;;;;;;21.75;13.65;;;11.50;99.90;;;;;;5069201;28;20191;-74
2021/09/26 05:49:16;;;;;;;22.92;13.30;;;11.60;99.90;;;;;;5069160;28;20605;-74
2021/09/26 05:51:42;;;;;;;19.77;12.85;;;11.70;99.90;;;;;;5068898;28;20256;-73
2021/09/26 05:54:08;;;;;;;23.30;12.60;;;11.80;99.90;;;;;;5068985;28;20171;-73
2021/09/26 05:56:34;;;;;;;24.48;12.98;;;12.00;99.90;;;;;;5068966;28;20165;-73
2021/09/26 05:59:00;;;;;;;18.40;12.55;;;12.10;99.90;;;;;;5068374;28;20187;-73
2021/09/26 06:01:26;;;;;;;21.30;14.10;;;12.20;99.90;;;;;;5068760;28;20215;-73
2021/09/26 06:03:52;;;;;;;25.30;13.00;;;12.30;99.90;;;;;;5068445;28;20240;-74
2021/09/26 06:06:18;;;;;;;23.52;15.10;;;12.40;99.90;;;;;;5068732;28;20220;-73
2021/09/26 06:08:43;;;;;;;19.08;12.63;;;12.50;99.90;;;;;;5068723;28;20164;-73
2021/09/26 06:11:09;;;;;;;20.20;13.52;;;12.50;99.90;;;;;;5068721;28;20256;-73
2021/09/26 06:13:36;;;;;;;19.88;14.50;;;12.60;99.90;;;;;;5068670;28;20270;-72
2021/09/26 06:16:02;;;;;;;20.67;12.85;;;12.80;99.90;;;;;;5050457;28;20196;-72
2021/09/26 06:18:30;;;;;;;22.25;14.43;;;13.00;99.90;;;;;;5068445;28;20194;-73
2021/09/26 06:20:56;;;;;;;19.40;12.45;;;13.30;99.90;;;;;;5068463;28;20224;-73
2021/09/26 06:23:21;;;;;;;18.58;11.85;;;13.70;99.90;;;;;;5068591;28;20247;-72
2021/09/26 06:25:48;;;;;;;18.75;11.05;;;13.70;99.90;;;;;;5068179;28;20192;-72
2021/09/26 06:28:15;;;;;;;19.58;12.52;;;13.70;99.90;;;;;;5068165;28;20184;-73
2021/09/26 06:30:40;;;;;;;14.10;10.40;;;13.90;99.90;;;;;;5068171;28;20153;-73
2021/09/26 06:33:07;;;;;;;14.27;9.73;;;14.00;99.90;;;;;;5068254;28;20199;-73
2021/09/26 06:35:33;;;;;;;16.17;10.25;;;14.10;99.90;;;;;;5068114;28;20189;-71
2021/09/26 06:38:00;;;;;;;13.85;10.13;;;14.20;99.90;;;;;;5067796;28;20192;-71
2021/09/26 06:40:26;;;;;;;13.90;9.40;;;14.30;99.90;;;;;;5065758;28;20194;-71
2021/09/26 06:42:52;;;;;;;13.68;9.35;;;14.40;99.90;;;;;;5068056;28;20222;-71
2021/09/26 06:45:19;;;;;;;14.63;9.35;;;14.60;99.90;;;;;;5067378;28;20239;-71
2021/09/26 06:47:44;;;;;;;13.43;8.85;;;15.30;99.90;;;;;;5048073;28;20215;-71
2021/09/26 06:50:11;;;;;;;11.27;8.45;;;15.20;99.90;;;;;;5061789;28;20164;-71
2021/09/26 06:52:37;;;;;;;10.85;8.20;;;15.60;99.90;;;;;;5067733;28;20220;-71
2021/09/26 06:55:05;;;;;;;8.35;6.82;;;15.80;99.90;;;;;;5067766;28;20218;-71
2021/09/26 06:57:31;;;;;;;9.95;7.40;;;15.90;99.90;;;;;;5067425;28;20222;-71
2021/09/26 06:59:57;;;;;;;9.85;6.68;;;15.70;99.90;;;;;;5067650;28;20160;-71
2021/09/26 07:02:23;;;;;;;10.88;7.78;;;15.80;99.90;;;;;;5067684;28;20192;-71
2021/09/26 07:04:53;;;;;;;12.68;7.90;;;15.50;99.90;;;;;;5067733;28;20180;-71
2021/09/26 07:07:22;;;;;;;12.10;8.10;;;15.40;99.90;;;;;;5067859;28;20181;-72
2021/09/26 07:09:49;;;;;;;10.95;7.78;;;15.70;99.90;;;;;;5067636;28;20552;-71
2021/09/26 07:12:16;;;;;;;16.17;8.27;;;15.90;99.90;;;;;;5067507;28;20160;-71
2021/09/26 07:14:43;;;;;;;13.68;7.85;;;16.20;99.90;;;;;;5067537;28;20200;-72
2021/09/26 07:17:09;;;;;;;10.68;8.02;;;16.40;99.90;;;;;;5067729;28;20177;-72
2021/09/26 07:19:35;;;;;;;11.30;7.65;;;16.80;99.90;;;;;;5067407;28;20160;-72
2021/09/26 07:22:01;;;;;;;10.93;7.30;;;17.10;99.90;;;;;;5067741;28;20645;-72
2021/09/26 07:24:27;;;;;;;12.95;7.90;;;17.30;99.90;;;;;;5064711;28;20236;-71
2021/09/26 07:26:53;;;;;;;10.98;7.50;;;17.50;99.90;;;;;;5067398;28;20153;-72
2021/09/26 07:29:19;;;;;;;11.27;7.05;;;17.80;99.90;;;;;;5067633;28;20164;-72
2021/09/26 07:31:46;;;;;;;9.75;7.25;;;18.60;99.90;;;;;;5067331;28;20160;-72
2021/09/26 07:34:11;;;;;;;9.18;5.50;;;19.40;99.90;;;;;;5067267;28;20183;-73
2021/09/26 07:36:38;;;;;;;8.20;6.13;;;20.70;99.90;;;;;;5049115;28;20207;-73
2021/09/26 07:39:05;;;;;;;8.07;5.25;;;21.00;99.90;;;;;;5066020;28;20235;-71
2021/09/26 07:41:32;;;;;;;7.75;5.47;;;21.30;99.90;;;;;;5065089;28;20255;-71
2021/09/26 07:44:00;;;;;;;7.40;5.93;;;20.40;99.90;;;;;;5066797;28;20250;-71
2021/09/26 07:46:26;;;;;;;7.03;4.95;;;19.60;99.90;;;;;;5065167;28;20197;-72
2021/09/26 07:48:52;;;;;;;5.43;4.75;;;20.70;99.90;;;;;;5066260;28;20252;-72
2021/09/26 07:51:18;;;;;;;6.32;4.65;;;22.20;99.90;;;;;;5066847;28;20234;-72
2021/09/26 07:53:44;;;;;;;5.63;4.50;;;22.20;99.90;;;;;;5067001;28;20172;-71
2021/09/26 07:56:10;;;;;;;9.73;4.40;;;21.70;99.90;;;;;;5066858;28;20195;-71
2021/09/26 07:58:37;;;;;;;4.20;3.72;;;22.20;99.90;;;;;;5067083;28;20171;-71
2021/09/26 08:01:03;;;;;;;7.88;3.83;;;21.90;99.90;;;;;;5066974;28;20258;-72
2021/09/26 08:03:29;;;;;;;5.15;3.67;;;22.60;99.90;;;;;;5066902;28;20206;-72
2021/09/26 08:05:55;;;;;;;4.40;3.33;;;22.40;99.90;;;;;;5066948;28;20200;-72
2021/09/26 08:08:22;;;;;;;3.30;2.85;;;23.40;99.90;;;;;;5049715;28;20558;-72
2021/09/26 08:10:48;;;;;;;4.00;2.85;;;23.70;99.90;;;;;;5071126;28;20168;-72
2021/09/26 08:13:14;;;;;;;4.85;3.17;;;22.60;99.90;;;;;;5070803;28;20200;-72
2021/09/26 08:15:40;;;;;;;4.10;2.80;;;22.50;99.90;;;;;;5070597;28;20280;-74
2021/09/26 08:18:06;;;;;;;3.22;2.90;;;21.60;99.90;;;;;;5069197;28;20179;-71
2021/09/26 08:20:32;;;;;;;3.75;2.97;;;21.80;99.90;;;;;;5070584;28;20171;-73
2021/09/26 08:22:58;;;;;;;3.45;2.97;;;21.30;99.90;;;;;;5070436;28;20247;-74
2021/09/26 08:25:24;;;;;;;2.85;2.53;;;22.40;99.90;;;;;;5064000;28;22109;-73
2021/09/26 08:27:51;;;;;;;4.10;2.72;;;22.70;99.90;;;;;;5068139;28;20667;-72
2021/09/26 08:30:19;;;;;;;3.05;2.72;;;23.00;99.90;;;;;;5070466;28;20168;-73
2021/09/26 08:32:46;;;;;;;5.18;3.45;;;23.20;99.90;;;;;;5051825;28;20167;-73
2021/09/26 08:35:13;;;;;;;6.68;3.97;;;24.30;99.90;;;;;;5070305;28;20187;-72
2021/09/26 08:37:39;;;;;;;3.30;2.67;;;22.70;99.90;;;;;;5070180;28;20194;-72
2021/09/26 08:40:07;;;;;;;4.38;3.05;;;23.80;99.90;;;;;;5070221;28;20621;-72
2021/09/26 08:42:37;;;;;;;3.42;2.83;;;24.90;99.90;;;;;;5069753;28;20200;-73
2021/09/26 08:45:06;;;;;;;5.57;2.67;;;24.50;99.90;;;;;;5070169;28;20590;-73
2021/09/26 08:47:36;;;;;;;3.67;2.78;;;25.50;99.90;;;;;;5070615;28;20171;-72
2021/09/26 08:50:04;;;;;;;3.85;2.47;;;25.40;99.90;;;;;;5070054;28;20165;-73
2021/09/26 08:52:30;;;;;;;3.35;2.58;;;25.60;99.90;;;;;;5069702;28;20243;-73
2021/09/26 08:54:56;;;;;;;3.85;2.70;;;26.00;99.90;;;;;;5069338;28;20192;-74
2021/09/26 08:57:22;;;;;;;3.83;2.60;;;25.90;99.90;;;;;;5069848;28;20175;-73
2021/09/26 08:59:48;;;;;;;3.13;2.60;;;26.00;99.90;;;;;;5069715;28;20358;-73
2021/09/26 09:02:14;;;;;;;2.50;2.30;;;24.90;99.90;;;;;;5069772;28;20192;-73
2021/09/26 09:04:42;;;;;;;3.47;2.90;;;25.00;99.90;;;;;;5069919;28;20555;-73
2021/09/26 09:07:11;;;;;;;4.05;2.45;;;25.70;99.90;;;;;;5050980;28;20206;-72
2021/09/26 09:09:53;;;;;;;2.53;2.28;;;25.90;99.90;;;;;;5069856;28;20215;-73
2021/09/26 09:12:26;;;;;;;3.80;2.25;;;26.30;99.90;;;;;;5070044;28;20190;-73
2021/09/26 09:15:04;;;;;;;3.65;2.67;;;26.30;99.90;;;;;;5052257;28;20191;-72
2021/09/26 09:17:32;;;;;;;5.65;2.33;;;26.30;99.90;;;;;;5070256;28;20187;-73
2021/09/26 09:20:20;;;;;;;2.58;2.38;;;26.00;99.90;;;;;;5069701;28;20222;-75
2021/09/26 09:23:06;;;;;;;4.97;2.80;;;26.30;99.90;;;;;;5067142;28;20239;-75
2021/09/26 09:25:33;;;;;;;4.40;2.72;;;25.70;99.90;;;;;;5070763;28;20176;-75
2021/09/26 09:28:00;;;;;;;2.70;2.50;;;24.00;99.90;;;;;;5070576;28;20191;-75
2021/09/26 09:30:38;;;;;;;3.00;2.30;;;23.90;99.90;;;;;;5070454;28;20219;-75
2021/09/26 09:33:06;;;;;;;3.22;2.92;;;24.70;99.90;;;;;;5070314;28;20171;-75
2021/09/26 09:35:56;;;;;;;3.88;3.25;;;25.20;99.90;;;;;;5069974;28;20214;-75
2021/09/26 09:38:27;;;;;;;3.05;2.50;;;26.20;99.90;;;;;;5068621;28;20188;-75
2021/09/26 09:40:54;;;;;;;2.92;2.50;;;27.20;99.90;;;;;;5068972;28;20157;-74
2021/09/26 09:43:21;;;;;;;3.42;2.95;;;27.70;99.90;;;;;;5084441;28;20612;-74
2021/09/26 09:45:54;;;;;;;2.85;2.63;;;28.10;99.90;;;;;;5089331;28;20219;-74
2021/09/26 09:48:30;;;;;;;7.63;2.97;;;28.40;99.90;;;;;;5088844;28;20200;-74
2021/09/26 09:50:58;;;;;;;3.20;2.90;;;28.60;99.90;;;;;;5066376;28;20226;-74
2021/09/26 09:53:50;;;;;;;4.90;2.95;;;26.90;99.90;;;;;;5068820;28;20169;-74
2021/09/26 09:56:19;;;;;;;4.07;3.05;;;26.10;99.90;;;;;;5067582;28;20192;-74
2021/09/26 09:58:51;;;;;;;4.00;2.80;;;27.10;99.90;;;;;;5068662;28;20195;-74
2021/09/26 10:01:22;;;;;;;3.05;2.60;;;27.80;99.90;;;;;;5068654;28;20191;-74
2021/09/26 10:03:51;;;;;;;3.97;2.88;;;26.40;99.90;;;;;;5068984;28;20217;-74
2021/09/26 10:06:35;;;;;;;5.05;2.88;;;27.10;99.90;;;;;;5068881;28;20218;-74
2021/09/26 10:09:13;;;;;;;4.38;3.00;;;27.20;99.90;;;;;;5068889;28;20302;-74
2021/09/26 10:11:51;;;;;;;4.07;2.95;;;27.20;99.90;;;;;;5066798;28;20164;-74
2021/09/26 10:14:18;;;;;;;3.00;2.55;;;27.50;99.90;;;;;;5048856;28;20161;-74
2021/09/26 10:16:46;;;;;;;3.00;2.55;;;27.90;99.90;;;;;;5048924;28;20183;-73
2021/09/26 10:19:12;;;;;;;4.57;3.33;;;28.70;99.90;;;;;;5048981;28;20189;-73
2021/09/26 10:21:39;;;;;;;3.55;2.75;;;29.10;99.90;;;;;;5049259;28;20184;-73
2021/09/26 10:24:06;;;;;;;3.90;3.60;;;29.40;99.50;;;;;;5049163;28;20240;-74
2021/09/26 10:26:35;;;;;;;3.50;2.78;;;29.70;99.10;;;;;;5048386;28;20171;-73
2021/09/26 10:29:03;;;;;;;3.92;3.55;;;29.70;99.40;;;;;;5048215;28;20211;-74
2021/09/26 10:31:31;;;;;;;3.58;3.28;;;29.60;98.80;;;;;;5047726;28;20157;-73
2021/09/26 10:34:01;;;;;;;4.25;3.03;;;27.80;99.90;;;;;;5048229;28;20163;-74
2021/09/26 10:36:28;;;;;;;3.53;3.05;;;27.80;99.90;;;;;;5046993;28;20160;-74
2021/09/26 10:38:55;;;;;;;5.68;3.40;;;28.80;99.70;;;;;;5048189;28;20206;-73
2021/09/26 10:41:23;;;;;;;5.70;3.25;;;28.40;99.60;;;;;;5047302;28;20188;-73
2021/09/26 10:43:49;;;;;;;4.10;3.10;;;28.20;99.90;;;;;;5066637;28;20242;-74
2021/09/26 10:46:29;;;;;;;3.83;2.72;;;29.00;99.10;;;;;;5068193;28;20193;-74
2021/09/26 10:49:00;;;;;;;3.78;2.92;;;26.60;99.90;;;;;;5068249;28;20188;-73
2021/09/26 10:51:43;;;;;;;3.50;2.83;;;26.70;99.90;;;;;;5076274;28;20288;-73
2021/09/26 10:54:27;;;;;;;3.33;2.80;;;28.70;99.90;;;;;;5087954;28;20171;-73
2021/09/26 10:57:05;;;;;;;3.20;2.90;;;29.60;99.00;;;;;;5087842;28;20245;-74
2021/09/26 10:59:42;;;;;;;8.23;5.75;;;28.40;99.90;;;;;;5087771;28;20191;-73
2021/09/26 11:02:23;;;;;;;5.38;3.83;;;29.00;99.50;;;;;;5087680;28;20195;-74
2021/09/26 11:04:51;;;;;;;3.42;3.13;;;28.10;99.90;;;;;;5087806;28;20612;-73
2021/09/26 11:07:22;;;;;;;3.42;3.13;;;28.30;99.90;;;;;;5087724;28;20168;-73
2021/09/26 11:10:03;;;;;;;6.07;5.55;;;29.50;99.90;;;;;;5087326;28;20195;-73
2021/09/26 11:12:42;;;;;;;5.22;4.72;;;30.10;98.90;;;;;;5078526;28;20164;-74
2021/09/26 11:15:19;;;;;;;5.07;3.60;;;30.10;99.30;;;;;;5067256;28;20301;-73
2021/09/26 11:17:51;;;;;;;4.80;3.53;;;29.80;99.90;;;;;;5067300;28;20152;-73
2021/09/26 11:20:26;;;;;;;4.45;3.25;;;30.10;98.40;;;;;;5067483;28;20184;-74
2021/09/26 11:23:04;;;;;;;4.57;3.22;;;29.90;98.70;;;;;;5067195;28;20643;-73
2021/09/26 11:26:00;;;;;;;3.40;3.10;;;29.10;99.80;;;;;;5067063;28;20175;-73
2021/09/26 11:28:32;;;;;;;4.15;2.80;;;29.30;99.40;;;;;;5067256;28;20263;-73
2021/09/26 11:30:58;;;;;;;3.17;2.83;;;28.40;99.90;;;;;;5067381;28;20160;-73
2021/09/26 11:33:25;;;;;;;2.90;2.60;;;27.50;99.90;;;;;;5067412;28;20171;-73
2021/09/26 11:35:50;;;;;;;4.00;3.03;;;28.30;99.90;;;;;;5067374;28;20566;-73
2021/09/26 11:38:33;;;;;;;3.15;2.85;;;28.30;99.90;;;;;;5067214;28;20275;-73
2021/09/26 11:41:05;;;;;;;3.42;2.90;;;29.70;99.40;;;;;;5067142;28;20206;-73
2021/09/26 11:43:43;;;;;;;4.32;2.60;;;28.70;99.90;;;;;;5083908;28;20190;-73
2021/09/26 11:46:18;;;;;;;3.92;2.55;;;27.70;99.90;;;;;;5087144;28;20269;-73
2021/09/26 11:48:44;;;;;;;3.67;3.22;;;28.60;99.90;;;;;;5087085;28;20186;-73
2021/09/26 11:51:13;;;;;;;4.05;3.13;;;29.40;99.30;;;;;;5086688;28;20234;-73
2021/09/26 11:53:40;;;;;;;3.53;2.80;;;29.90;99.20;;;;;;5087148;28;20197;-74
2021/09/26 11:56:21;;;;;;;3.20;2.90;;;30.30;98.00;;;;;;5087199;28;20164;-74
2021/09/26 11:58:52;;;;;;;7.78;2.78;;;29.80;99.20;;;;;;5079593;28;20310;-74
2021/09/26 12:01:42;;;;;;;3.60;2.47;;;29.70;98.30;;;;;;5066677;28;20210;-74
2021/09/26 12:04:15;;;;;;;3.22;2.67;;;28.60;99.90;;;;;;5067064;28;20218;-74
2021/09/26 12:06:44;;;;;;;3.03;2.70;;;29.00;98.50;;;;;;5067026;28;20145;-74
2021/09/26 12:09:15;;;;;;;3.80;2.75;;;28.40;99.60;;;;;;5066965;28;20199;-74
2021/09/26 12:11:46;;;;;;;3.38;2.75;;;28.20;99.90;;;;;;5048922;28;20183;-74
2021/09/26 12:14:20;;;;;;;3.75;3.10;;;26.80;99.90;;;;;;5067071;28;20646;-73
2021/09/26 12:16:46;;;;;;;3.25;2.53;;;25.70;99.90;;;;;;5067082;28;20274;-74
2021/09/26 12:19:12;;;;;;;3.17;2.78;;;25.30;99.90;;;;;;5066960;28;20199;-75
2021/09/26 12:21:38;;;;;;;4.25;2.70;;;24.90;99.90;;;;;;5066847;28;20230;-74
2021/09/26 12:24:10;;;;;;;6.50;3.60;;;24.10;99.90;;;;;;5048958;28;20156;-72
2021/09/26 12:26:37;;;;;;;3.95;3.00;;;24.00;99.90;;;;;;5067006;28;20188;-72
2021/09/26 12:29:11;;;;;;;3.17;2.83;;;24.30;99.90;;;;;;5066816;28;20197;-72
2021/09/26 12:31:39;;;;;;;3.08;2.78;;;24.10;99.90;;;;;;5066893;28;20163;-72
2021/09/26 12:34:08;;;;;;;3.95;2.80;;;23.90;99.90;;;;;;5066865;28;20211;-72
2021/09/26 12:36:40;;;;;;;4.38;2.80;;;23.90;99.90;;;;;;5066793;28;20160;-74
2021/09/26 12:39:17;;;;;;;3.38;3.05;;;24.00;99.90;;;;;;5066842;28;20214;-73
2021/09/26 12:41:51;;;;;;;4.13;3.10;;;24.00;99.90;;;;;;5068749;28;20282;-74
2021/09/26 12:44:31;;;;;;;3.85;2.72;;;24.20;99.90;;;;;;5086850;28;20183;-71
2021/09/26 12:46:58;;;;;;;4.50;3.95;;;24.40;99.90;;;;;;5087518;28;20176;-74
2021/09/26 12:49:25;;;;;;;9.43;3.22;;;24.20;99.90;;;;;;5087429;28;20191;-75